createdAt,value
2022-10-04T00:00:23.431Z,34.62
2022-10-04T00:00:58.719Z,34.46
2022-10-04T00:01:30.959Z,34.80
2022-10-04T00:02:04.806Z,34.60
2022-10-04T00:02:36.449Z,34.60
2022-10-04T00:03:13.557Z,34.60
2022-10-04T00:03:46.891Z,34.52
2022-10-04T00:04:21.101Z,34.48
2022-10-04T00:04:59.233Z,34.54
2022-10-04T00:05:30.762Z,34.48
2022-10-04T00:06:02.618Z,34.67
2022-10-04T00:06:34.209Z,34.56
2022-10-04T00:07:11.740Z,34.50
2022-10-04T00:07:51.299Z,34.61
2022-10-04T00:08:27.693Z,34.51
2022-10-04T00:09:00.246Z,34.65
2022-10-04T00:09:36.426Z,34.69
2022-10-04T00:10:15.923Z,34.38
2022-10-04T00:10:47.434Z,34.51
2022-10-04T00:11:18.943Z,34.61
2022-10-04T00:11:50.665Z,34.39
2022-10-04T00:12:32.741Z,34.53
2022-10-04T00:13:05.360Z,34.57
2022-10-04T00:13:36.943Z,34.60
2022-10-04T00:14:09.938Z,34.79
2022-10-04T00:14:42.354Z,34.65
2022-10-04T00:15:21.341Z,34.49
2022-10-04T00:15:52.959Z,34.45
2022-10-04T00:16:31.703Z,34.53
2022-10-04T00:17:13.121Z,34.70
2022-10-04T00:17:44.695Z,34.70
2022-10-04T00:18:19.115Z,34.76
2022-10-04T00:18:53.406Z,34.76
2022-10-04T00:19:27.014Z,34.57
2022-10-04T00:19:58.652Z,34.53
2022-10-04T00:20:48.496Z,34.60
2022-10-04T00:21:20.029Z,34.87
2022-10-04T00:21:54.541Z,34.70
2022-10-04T00:22:27.112Z,34.60
2022-10-04T00:23:18.588Z,34.69
2022-10-04T00:23:50.186Z,34.53
2022-10-04T00:24:31.261Z,34.54
2022-10-04T00:25:08.463Z,34.80
2022-10-04T00:25:40.001Z,34.64
2022-10-04T00:26:34.453Z,34.55
2022-10-04T00:27:21.950Z,34.73
2022-10-04T00:28:13.839Z,34.90
2022-10-04T00:28:45.592Z,34.61
2022-10-04T00:29:33.161Z,34.72
2022-10-04T00:30:04.671Z,34.75
2022-10-04T00:30:36.993Z,34.68
2022-10-04T00:31:14.612Z,34.72
2022-10-04T00:32:04.890Z,34.90
2022-10-04T00:32:39.026Z,34.70
2022-10-04T00:33:10.651Z,34.75
2022-10-04T00:33:42.144Z,34.92
2022-10-04T00:34:13.654Z,34.95
2022-10-04T00:34:46.592Z,34.77
2022-10-04T00:35:27.173Z,34.66
2022-10-04T00:35:58.703Z,34.67
2022-10-04T00:36:31.199Z,34.60
2022-10-04T00:37:03.651Z,34.53
2022-10-04T00:37:53.325Z,34.48
2022-10-04T00:38:25.604Z,34.69
2022-10-04T00:39:09.019Z,34.47
2022-10-04T00:39:41.527Z,34.67
2022-10-04T00:40:14.499Z,34.61
2022-10-04T00:40:56.749Z,34.59
2022-10-04T00:41:28.680Z,34.58
2022-10-04T00:42:06.964Z,34.45
2022-10-04T00:42:43.428Z,34.69
2022-10-04T00:43:21.393Z,34.16
2022-10-04T00:43:52.980Z,34.32
2022-10-04T00:44:28.255Z,34.45
2022-10-04T00:45:01.169Z,34.35
2022-10-04T00:45:34.224Z,34.53
2022-10-04T00:46:06.342Z,34.52
2022-10-04T00:46:38.091Z,34.33
2022-10-04T00:47:29.369Z,34.51
2022-10-04T00:48:04.878Z,34.36
2022-10-04T00:48:36.482Z,34.27
2022-10-04T00:49:08.117Z,34.57
2022-10-04T00:49:40.274Z,34.45
2022-10-04T00:50:18.577Z,34.31
2022-10-04T00:50:53.699Z,34.30
2022-10-04T00:51:26.717Z,34.54
2022-10-04T00:51:59.908Z,34.49
2022-10-04T00:52:32.050Z,34.51
2022-10-04T00:53:04.227Z,34.59
2022-10-04T00:53:49.709Z,34.64
2022-10-04T00:54:22.330Z,34.46
2022-10-04T00:54:55.104Z,34.41
2022-10-04T00:55:29.730Z,34.57
2022-10-04T00:56:01.655Z,34.46
2022-10-04T00:56:47.283Z,34.43
2022-10-04T00:57:22.776Z,34.30
2022-10-04T00:57:57.514Z,34.49
2022-10-04T00:58:33.646Z,34.38
2022-10-04T00:59:10.365Z,34.40
2022-10-04T00:59:42.353Z,34.41
2022-10-04T01:00:14.504Z,34.36
2022-10-04T01:00:46.100Z,34.31
2022-10-04T01:01:19.470Z,34.50
2022-10-04T01:01:52.331Z,34.49
2022-10-04T01:02:47.125Z,34.39
2022-10-04T01:03:19.698Z,34.27
2022-10-04T01:03:51.337Z,34.52
2022-10-04T01:04:32.013Z,34.44
2022-10-04T01:05:10.649Z,34.49
2022-10-04T01:05:42.965Z,34.39
2022-10-04T01:06:14.541Z,34.29
2022-10-04T01:06:46.135Z,34.16
2022-10-04T01:07:19.217Z,34.32
2022-10-04T01:07:52.256Z,34.43
2022-10-04T01:08:40.675Z,34.42
2022-10-04T01:09:12.450Z,34.37
2022-10-04T01:09:48.756Z,34.17
2022-10-04T01:10:21.493Z,34.19
2022-10-04T01:10:54.709Z,34.42
2022-10-04T01:11:29.305Z,34.29
2022-10-04T01:12:04.404Z,34.37
2022-10-04T01:12:44.354Z,34.33
2022-10-04T01:13:31.518Z,34.25
2022-10-04T01:14:09.401Z,34.39
2022-10-04T01:14:55.928Z,34.20
2022-10-04T01:15:40.633Z,34.25
2022-10-04T01:16:19.137Z,34.19
2022-10-04T01:16:50.721Z,34.19
2022-10-04T01:17:22.428Z,34.38
2022-10-04T01:18:09.314Z,34.22
2022-10-04T01:18:41.332Z,34.33
2022-10-04T01:19:26.570Z,34.39
2022-10-04T01:19:58.204Z,34.46
2022-10-04T01:20:38.762Z,34.31
2022-10-04T01:21:19.234Z,34.59
2022-10-04T01:22:03.278Z,34.41
2022-10-04T01:22:36.236Z,34.43
2022-10-04T01:23:09.255Z,34.40
2022-10-04T01:23:44.706Z,34.44
2022-10-04T01:24:16.388Z,34.30
2022-10-04T01:24:47.998Z,34.55
2022-10-04T01:25:57.913Z,34.47
2022-10-04T01:26:29.396Z,34.40
2022-10-04T01:27:01.022Z,34.46
2022-10-04T01:27:36.545Z,34.41
2022-10-04T01:28:08.152Z,34.45
2022-10-04T01:28:39.806Z,34.45
2022-10-04T01:29:12.882Z,34.52
2022-10-04T01:29:44.487Z,34.61
2022-10-04T01:30:16.530Z,34.44
2022-10-04T01:30:48.144Z,34.61
2022-10-04T01:31:19.790Z,34.44
2022-10-04T01:31:52.228Z,34.58
2022-10-04T01:32:23.808Z,34.67
2022-10-04T01:32:55.419Z,34.88
2022-10-04T01:33:27.117Z,34.56
2022-10-04T01:33:59.328Z,34.73
2022-10-04T01:34:30.972Z,34.83
2022-10-04T01:35:02.665Z,34.75
2022-10-04T01:35:34.364Z,34.88
2022-10-04T01:36:06.126Z,34.85
2022-10-04T01:36:37.723Z,34.78
2022-10-04T01:37:09.296Z,34.79
2022-10-04T01:37:40.884Z,34.73
2022-10-04T01:38:12.504Z,34.59
2022-10-04T01:38:44.047Z,34.70
2022-10-04T01:39:16.266Z,34.83
2022-10-04T01:39:47.853Z,34.65
2022-10-04T01:40:19.480Z,34.61
2022-10-04T01:40:54.011Z,34.64
2022-10-04T01:41:31.038Z,34.59
2022-10-04T01:42:11.633Z,34.81
2022-10-04T01:42:46.695Z,34.61
2022-10-04T01:43:21.127Z,34.56
2022-10-04T01:43:53.160Z,34.74
2022-10-04T01:44:27.774Z,34.56
2022-10-04T01:45:01.954Z,34.53
2022-10-04T01:45:38.355Z,34.67
2022-10-04T01:46:13.576Z,34.73
2022-10-04T01:46:45.244Z,34.61
2022-10-04T01:47:18.989Z,34.76
2022-10-04T01:47:50.513Z,34.69
2022-10-04T01:48:22.472Z,34.59
2022-10-04T01:48:54.463Z,34.35
2022-10-04T01:49:27.191Z,34.49
2022-10-04T01:49:59.096Z,34.29
2022-10-04T01:50:34.276Z,34.22
2022-10-04T01:51:07.894Z,34.23
2022-10-04T01:51:44.267Z,34.17
2022-10-04T01:52:15.751Z,34.48
2022-10-04T01:52:48.623Z,34.32
2022-10-04T01:53:21.549Z,34.38
2022-10-04T01:53:56.822Z,34.51
2022-10-04T01:54:48.013Z,34.39
2022-10-04T01:55:20.597Z,34.55
2022-10-04T01:55:53.305Z,34.46
2022-10-04T01:56:26.344Z,34.35
2022-10-04T01:57:16.989Z,34.47
2022-10-04T01:58:20.598Z,34.57
2022-10-04T01:58:52.748Z,34.48
2022-10-04T01:59:25.694Z,34.43
2022-10-04T02:00:01.742Z,34.50
2022-10-04T02:00:33.334Z,34.44
2022-10-04T02:01:05.970Z,34.45
2022-10-04T02:01:40.260Z,34.26
2022-10-04T02:02:17.810Z,34.52
2022-10-04T02:02:51.128Z,34.57
2022-10-04T02:03:48.937Z,34.41
2022-10-04T02:04:31.027Z,34.38
2022-10-04T02:05:03.100Z,34.20
2022-10-04T02:05:41.487Z,34.42
2022-10-04T02:06:13.140Z,34.43
2022-10-04T02:06:45.073Z,34.39
2022-10-04T02:07:16.631Z,34.37
2022-10-04T02:07:48.391Z,34.46
2022-10-04T02:08:23.007Z,34.62
2022-10-04T02:08:54.600Z,34.60
2022-10-04T02:09:29.996Z,34.47
2022-10-04T02:10:02.222Z,34.43
2022-10-04T02:10:34.041Z,34.35
2022-10-04T02:11:05.592Z,34.37
2022-10-04T02:11:37.145Z,34.37
2022-10-04T02:12:08.746Z,34.47
2022-10-04T02:12:42.171Z,34.45
2022-10-04T02:13:14.264Z,34.44
2022-10-04T02:13:45.801Z,34.51
2022-10-04T02:14:17.675Z,34.34
2022-10-04T02:14:50.381Z,34.56
2022-10-04T02:15:22.648Z,34.43
2022-10-04T02:15:54.296Z,34.37
2022-10-04T02:16:25.923Z,34.26
2022-10-04T02:16:57.583Z,34.52
2022-10-04T02:17:31.995Z,34.47
2022-10-04T02:18:03.669Z,34.56
2022-10-04T02:18:35.474Z,34.23
2022-10-04T02:19:08.031Z,34.35
2022-10-04T02:19:40.373Z,34.27
2022-10-04T02:20:13.915Z,34.03
2022-10-04T02:20:45.479Z,34.26
2022-10-04T02:21:17.024Z,34.28
2022-10-04T02:21:48.627Z,34.42
2022-10-04T02:22:20.232Z,34.47
2022-10-04T02:22:52.783Z,34.45
2022-10-04T02:23:24.390Z,34.37
2022-10-04T02:23:55.970Z,34.23
2022-10-04T02:24:27.551Z,34.55
2022-10-04T02:24:59.114Z,34.58
2022-10-04T02:25:30.855Z,34.49
2022-10-04T02:26:05.981Z,34.53
2022-10-04T02:26:37.547Z,34.67
2022-10-04T02:27:09.232Z,34.65
2022-10-04T02:27:40.920Z,34.65
2022-10-04T02:28:12.720Z,34.52
2022-10-04T02:28:44.291Z,34.67
2022-10-04T02:29:16.031Z,34.63
2022-10-04T02:29:47.618Z,34.52
2022-10-04T02:30:19.261Z,34.58
2022-10-04T02:30:51.447Z,34.50
2022-10-04T02:31:23.195Z,34.70
2022-10-04T02:31:54.916Z,34.69
2022-10-04T02:32:26.458Z,34.78
2022-10-04T02:32:58.213Z,34.51
2022-10-04T02:33:29.720Z,34.66
2022-10-04T02:34:01.401Z,34.50
2022-10-04T02:34:33.069Z,34.76
2022-10-04T02:35:04.805Z,34.67
2022-10-04T02:35:38.134Z,34.46
2022-10-04T02:36:09.732Z,34.60
2022-10-04T02:36:41.376Z,34.76
2022-10-04T02:37:14.183Z,34.55
2022-10-04T02:37:46.564Z,34.50
2022-10-04T02:38:24.771Z,34.73
2022-10-04T02:39:01.292Z,34.58
2022-10-04T02:39:34.942Z,34.50
2022-10-04T02:40:10.821Z,34.56
2022-10-04T02:40:42.399Z,34.50
2022-10-04T02:41:24.520Z,34.52
2022-10-04T02:41:57.526Z,34.44
2022-10-04T02:42:39.789Z,34.31
2022-10-04T02:43:19.714Z,34.18
2022-10-04T02:43:53.259Z,34.34
2022-10-04T02:44:33.075Z,34.37
2022-10-04T02:45:13.673Z,34.29
2022-10-04T02:45:46.445Z,34.50
2022-10-04T02:46:19.903Z,34.54
2022-10-04T02:47:06.797Z,34.36
2022-10-04T02:47:46.618Z,34.46
2022-10-04T02:48:25.994Z,34.32
2022-10-04T02:48:57.520Z,34.45
2022-10-04T02:49:31.004Z,34.29
2022-10-04T02:50:06.204Z,34.48
2022-10-04T02:50:39.902Z,34.43
2022-10-04T02:51:23.253Z,34.36
2022-10-04T02:51:58.385Z,34.37
2022-10-04T02:52:34.225Z,34.33
2022-10-04T02:53:24.395Z,34.33
2022-10-04T02:54:02.985Z,34.45
2022-10-04T02:55:10.355Z,34.54
2022-10-04T02:55:41.937Z,34.58
2022-10-04T02:57:05.981Z,34.57
2022-10-04T02:58:07.769Z,34.78
2022-10-04T02:58:55.949Z,34.66
2022-10-04T02:59:43.562Z,34.61
2022-10-04T03:00:25.725Z,34.84
2022-10-04T03:04:39.159Z,34.67
2022-10-04T03:07:30.173Z,34.74
2022-10-04T03:08:23.016Z,34.75
2022-10-04T03:10:17.265Z,35.10
2022-10-04T03:11:09.195Z,34.83
2022-10-04T03:12:05.561Z,34.92
2022-10-04T03:12:56.116Z,34.81
2022-10-04T03:13:47.932Z,34.86
2022-10-04T03:14:40.651Z,34.70
2022-10-04T03:15:31.348Z,34.63
2022-10-04T03:16:21.514Z,34.74
2022-10-04T03:17:13.085Z,34.93
2022-10-04T03:18:00.261Z,34.94
2022-10-04T03:18:47.555Z,34.72
2022-10-04T03:19:42.900Z,34.72
2022-10-04T03:20:34.618Z,34.78
2022-10-04T03:21:24.857Z,34.65
2022-10-04T03:22:19.824Z,34.72
2022-10-04T03:23:09.381Z,34.77
2022-10-04T03:23:55.610Z,34.71
2022-10-04T03:24:45.672Z,34.62
2022-10-04T03:25:33.167Z,34.65
2022-10-04T03:26:21.635Z,34.78
2022-10-04T03:27:11.692Z,34.74
2022-10-04T03:27:57.856Z,34.72
2022-10-04T03:28:44.436Z,34.74
2022-10-04T03:29:34.544Z,34.63
2022-10-04T03:30:22.776Z,34.46
2022-10-04T03:31:15.424Z,34.70
2022-10-04T03:33:20.200Z,34.74
2022-10-04T03:34:17.208Z,34.62
2022-10-04T03:35:06.594Z,34.76
2022-10-04T03:36:00.839Z,34.85
2022-10-04T03:36:54.271Z,34.67
2022-10-04T03:37:49.075Z,34.66
2022-10-04T03:38:34.326Z,34.73
2022-10-04T03:39:43.520Z,34.71
2022-10-04T03:40:32.227Z,34.57
2022-10-04T03:41:17.399Z,34.79
2022-10-04T03:42:05.497Z,34.74
2022-10-04T03:42:53.726Z,34.93
2022-10-04T03:43:41.584Z,34.75
2022-10-04T03:44:27.418Z,34.82
2022-10-04T03:45:17.475Z,35.00
2022-10-04T03:46:06.467Z,35.03
2022-10-04T03:46:58.983Z,34.63
2022-10-04T03:47:48.522Z,34.67
2022-10-04T03:48:43.342Z,34.72
2022-10-04T03:49:36.776Z,34.81
2022-10-04T03:50:44.348Z,34.62
2022-10-04T03:51:32.457Z,34.52
2022-10-04T03:52:26.524Z,34.42
2022-10-04T03:53:15.178Z,34.43
2022-10-04T03:54:04.689Z,34.74
2022-10-04T03:54:55.040Z,34.46
2022-10-04T03:55:49.010Z,34.66
2022-10-04T03:56:38.168Z,34.46
2022-10-04T03:57:27.013Z,34.52
2022-10-04T03:58:17.306Z,34.45
2022-10-04T03:59:05.435Z,34.39
2022-10-04T03:59:53.166Z,34.52
2022-10-04T04:00:46.385Z,34.53
2022-10-04T04:02:04.233Z,34.46
2022-10-04T04:05:44.964Z,34.27
2022-10-04T04:07:32.033Z,34.10
2022-10-04T04:08:16.311Z,34.43
2022-10-04T04:09:10.355Z,34.60
2022-10-04T04:09:59.575Z,34.74
2022-10-04T04:10:50.365Z,34.37
2022-10-04T04:11:38.529Z,34.61
2022-10-04T04:12:35.584Z,34.50
2022-10-04T04:13:38.212Z,34.72
2022-10-04T04:14:28.655Z,34.82
2022-10-04T04:15:19.850Z,34.57
2022-10-04T04:17:22.275Z,34.72
2022-10-04T04:18:14.150Z,34.83
2022-10-04T04:18:58.020Z,34.74
2022-10-04T04:19:47.309Z,34.77
2022-10-04T04:20:39.030Z,34.67
2022-10-04T04:21:30.398Z,34.68
2022-10-04T04:22:19.806Z,34.54
2022-10-04T04:23:07.661Z,34.44
2022-10-04T04:23:50.912Z,34.66
2022-10-04T04:24:41.026Z,34.84
2022-10-04T04:25:28.010Z,34.76
2022-10-04T04:26:28.581Z,34.67
2022-10-04T04:27:18.561Z,34.51
2022-10-04T04:28:12.928Z,34.73
2022-10-04T04:29:18.482Z,34.48
2022-10-04T04:30:07.876Z,34.59
2022-10-04T04:31:02.085Z,34.58
2022-10-04T04:32:03.485Z,34.60
2022-10-04T04:32:55.728Z,34.62
2022-10-04T04:33:44.962Z,34.74
2022-10-04T04:34:37.745Z,34.48
2022-10-04T04:35:46.980Z,34.54
2022-10-04T04:36:37.561Z,34.73
2022-10-04T04:37:27.099Z,34.71
2022-10-04T04:38:35.261Z,34.51
2022-10-04T04:39:23.493Z,34.46
2022-10-04T04:40:20.316Z,34.44
2022-10-04T04:41:13.168Z,34.44
2022-10-04T04:42:04.066Z,34.28
2022-10-04T04:42:55.934Z,34.34
2022-10-04T04:43:54.600Z,34.10
2022-10-04T04:45:01.159Z,34.34
2022-10-04T04:46:56.859Z,34.41
2022-10-04T04:47:50.573Z,34.39
2022-10-04T04:48:41.712Z,34.43
2022-10-04T04:50:48.752Z,34.11
2022-10-04T04:51:40.110Z,34.25
2022-10-04T04:52:32.604Z,34.22
2022-10-04T04:53:32.698Z,34.22
2022-10-04T04:55:24.629Z,34.20
2022-10-04T04:56:18.409Z,34.19
2022-10-04T04:58:11.103Z,34.20
2022-10-04T04:59:03.276Z,34.19
2022-10-04T04:59:52.585Z,34.15
2022-10-04T05:00:39.508Z,34.25
2022-10-04T05:01:28.628Z,34.02
2022-10-04T05:02:20.353Z,34.24
2022-10-04T05:03:08.785Z,34.22
2022-10-04T05:04:51.318Z,34.17
2022-10-04T05:09:51.818Z,34.55
2022-10-04T05:10:46.705Z,34.64
2022-10-04T05:11:34.737Z,34.75
2022-10-04T05:12:24.019Z,34.43
2022-10-04T05:13:12.644Z,34.25
2022-10-04T05:14:10.379Z,34.41
2022-10-04T05:15:04.027Z,34.36
2022-10-04T05:16:01.933Z,34.25
2022-10-04T05:18:00.996Z,34.49
2022-10-04T05:18:56.557Z,34.46
2022-10-04T05:19:47.326Z,34.58
2022-10-04T05:20:36.420Z,34.78
2022-10-04T05:21:34.360Z,34.64
2022-10-04T05:22:24.566Z,34.63
2022-10-04T05:24:47.851Z,34.75
2022-10-04T05:26:38.103Z,34.61
2022-10-04T05:28:26.930Z,34.48
2022-10-04T05:30:44.281Z,34.58
2022-10-04T05:31:38.190Z,34.43
2022-10-04T05:32:23.578Z,34.60
2022-10-04T05:33:17.589Z,34.40
2022-10-04T05:34:11.012Z,34.59
2022-10-04T05:34:59.775Z,34.57
2022-10-04T05:36:01.466Z,34.51
2022-10-04T05:37:05.847Z,34.95
2022-10-04T05:37:59.832Z,34.61
2022-10-04T05:38:54.932Z,34.78
2022-10-04T05:39:39.008Z,34.60
2022-10-04T05:40:28.048Z,34.74
2022-10-04T05:41:29.066Z,34.26
2022-10-04T05:42:11.051Z,34.40
2022-10-04T05:43:01.109Z,34.46
2022-10-04T05:43:52.855Z,34.54
2022-10-04T05:44:46.080Z,34.45
2022-10-04T05:45:27.805Z,34.66
2022-10-04T05:46:30.483Z,34.46
2022-10-04T05:47:18.983Z,34.41
2022-10-04T05:48:06.399Z,34.07
2022-10-04T05:48:51.805Z,34.12
2022-10-04T05:49:39.237Z,34.28
2022-10-04T05:50:26.311Z,34.04
2022-10-04T05:51:19.655Z,34.20
2022-10-04T05:52:18.971Z,34.06
2022-10-04T05:53:25.434Z,34.18
2022-10-04T05:54:18.536Z,34.26
2022-10-04T05:55:23.920Z,34.11
2022-10-04T05:56:26.300Z,34.31
2022-10-04T05:57:12.679Z,34.30
2022-10-04T05:58:02.490Z,34.28
2022-10-04T05:59:08.798Z,34.25
2022-10-04T06:01:45.178Z,34.14
2022-10-04T06:02:47.661Z,34.03
2022-10-04T06:03:45.265Z,33.99
2022-10-04T06:06:05.534Z,34.00
2022-10-04T06:07:05.244Z,33.96
2022-10-04T06:07:55.700Z,33.98
2022-10-04T06:08:59.503Z,34.11
2022-10-04T06:09:43.264Z,34.08
2022-10-04T06:10:47.554Z,33.96
2022-10-04T06:11:40.030Z,34.00
2022-10-04T06:12:28.496Z,34.05
2022-10-04T06:13:27.416Z,34.03
2022-10-04T06:14:30.563Z,33.87
2022-10-04T06:15:13.927Z,34.01
2022-10-04T06:16:02.782Z,34.02
2022-10-04T06:16:44.817Z,34.02
2022-10-04T06:17:46.399Z,34.02
2022-10-04T06:18:30.237Z,33.93
2022-10-04T06:19:28.221Z,33.83
2022-10-04T06:20:14.359Z,33.86
2022-10-04T06:21:13.537Z,34.01
2022-10-04T06:22:15.030Z,33.95
2022-10-04T06:23:11.276Z,33.86
2022-10-04T06:24:06.989Z,33.83
2022-10-04T06:25:20.562Z,33.86
2022-10-04T06:26:18.042Z,34.00
2022-10-04T06:27:09.920Z,33.89
2022-10-04T06:27:59.059Z,33.92
2022-10-04T06:28:49.205Z,33.91
2022-10-04T06:29:37.945Z,34.27
2022-10-04T06:30:27.148Z,34.17
2022-10-04T06:31:27.578Z,33.98
2022-10-04T06:32:18.039Z,34.23
2022-10-04T06:33:16.409Z,34.18
2022-10-04T06:34:16.729Z,34.04
2022-10-04T06:35:04.661Z,34.28
2022-10-04T06:35:57.052Z,34.27
2022-10-04T06:36:54.618Z,34.35
2022-10-04T06:37:40.256Z,34.30
2022-10-04T06:38:29.291Z,34.42
2022-10-04T06:39:15.765Z,34.49
2022-10-04T06:40:16.761Z,34.47
2022-10-04T06:41:30.813Z,34.50
2022-10-04T06:43:18.010Z,34.46
2022-10-04T06:44:23.331Z,34.53
2022-10-04T06:45:16.148Z,34.45
2022-10-04T06:46:06.811Z,34.60
2022-10-04T06:47:08.817Z,34.54
2022-10-04T06:47:59.663Z,34.41
2022-10-04T06:48:50.553Z,34.56
2022-10-04T06:49:38.355Z,34.73
2022-10-04T06:50:28.465Z,34.44
2022-10-04T06:51:10.987Z,34.38
2022-10-04T06:51:55.881Z,34.41
2022-10-04T06:52:57.675Z,34.72
2022-10-04T06:53:56.955Z,34.44
2022-10-04T06:54:52.067Z,34.69
2022-10-04T06:55:34.915Z,34.64
2022-10-04T06:56:23.447Z,34.55
2022-10-04T06:57:11.525Z,34.41
2022-10-04T06:58:01.125Z,34.35
2022-10-04T06:58:46.202Z,34.52
2022-10-04T06:59:35.136Z,34.45
2022-10-04T07:00:19.758Z,34.60
2022-10-04T07:01:08.036Z,34.61
2022-10-04T07:02:17.808Z,34.50
2022-10-04T07:03:23.850Z,34.50
2022-10-04T07:04:41.169Z,34.40
2022-10-04T07:05:37.309Z,34.45
2022-10-04T07:06:27.815Z,34.30
2022-10-04T07:07:26.207Z,34.47
2022-10-04T07:08:32.557Z,34.62
2022-10-04T07:09:30.702Z,34.63
2022-10-04T07:11:48.970Z,34.62
2022-10-04T07:12:39.095Z,34.52
2022-10-04T07:13:24.654Z,34.39
2022-10-04T07:14:07.834Z,34.55
2022-10-04T07:14:58.724Z,34.47
2022-10-04T07:16:03.051Z,34.60
2022-10-04T07:16:49.446Z,34.64
2022-10-04T07:17:49.163Z,34.52
2022-10-04T07:18:42.590Z,34.68
2022-10-04T07:21:30.884Z,34.54
2022-10-04T07:22:11.925Z,34.66
2022-10-04T07:23:04.199Z,34.57
2022-10-04T07:24:09.860Z,34.64
2022-10-04T07:25:11.465Z,34.71
2022-10-04T07:26:03.514Z,34.78
2022-10-04T07:26:57.924Z,34.63
2022-10-04T07:27:59.592Z,34.76
2022-10-04T07:28:52.525Z,34.66
2022-10-04T07:30:50.346Z,34.56
2022-10-04T07:31:37.128Z,34.68
2022-10-04T07:32:29.218Z,34.54
2022-10-04T07:33:14.490Z,34.63
2022-10-04T07:34:06.977Z,34.65
2022-10-04T07:34:55.012Z,34.54
2022-10-04T07:35:45.864Z,34.53
2022-10-04T07:36:33.351Z,34.70
2022-10-04T07:37:26.405Z,34.40
2022-10-04T07:38:22.261Z,34.45
2022-10-04T07:39:33.595Z,34.57
2022-10-04T07:40:30.419Z,34.60
2022-10-04T07:41:14.081Z,34.74
2022-10-04T07:42:04.065Z,34.71
2022-10-04T07:42:59.870Z,34.73
2022-10-04T07:44:00.387Z,34.57
2022-10-04T07:44:54.266Z,34.89
2022-10-04T07:45:46.484Z,34.77
2022-10-04T07:46:53.281Z,34.77
2022-10-04T07:49:05.050Z,34.64
2022-10-04T07:51:06.527Z,34.80
2022-10-04T07:51:55.876Z,34.96
2022-10-04T07:52:59.581Z,34.92
2022-10-04T07:53:46.938Z,34.75
2022-10-04T07:54:54.188Z,34.85
2022-10-04T07:55:45.757Z,34.65
2022-10-04T07:56:49.597Z,34.98
2022-10-04T07:57:34.354Z,34.83
2022-10-04T07:58:43.295Z,34.67
2022-10-04T07:59:36.522Z,34.71
2022-10-04T08:00:19.284Z,34.81
2022-10-04T08:01:28.008Z,34.86
2022-10-04T08:02:18.648Z,34.73
2022-10-04T08:03:18.707Z,34.55
2022-10-04T08:05:38.442Z,34.68
2022-10-04T08:06:41.677Z,34.63
2022-10-04T08:07:31.440Z,34.57
2022-10-04T08:09:51.470Z,34.55
2022-10-04T08:10:31.124Z,34.78
2022-10-04T08:11:17.182Z,34.44
2022-10-04T08:12:19.333Z,34.60
2022-10-04T08:13:24.979Z,34.50
2022-10-04T08:14:24.638Z,34.48
2022-10-04T08:15:13.966Z,34.44
2022-10-04T08:18:43.715Z,34.61
2022-10-04T08:19:37.694Z,34.74
2022-10-04T08:20:31.363Z,34.54
2022-10-04T08:21:22.607Z,34.40
2022-10-04T08:22:30.512Z,34.68
2022-10-04T08:23:17.023Z,34.58
2022-10-04T08:25:32.184Z,34.69
2022-10-04T08:26:38.328Z,34.83
2022-10-04T08:27:26.079Z,34.63
2022-10-04T08:28:10.160Z,34.51
2022-10-04T08:29:10.185Z,34.58
2022-10-04T08:29:59.562Z,34.65
2022-10-04T08:30:48.723Z,34.60
2022-10-04T08:31:47.826Z,34.69
2022-10-04T08:32:42.409Z,34.88
2022-10-04T08:33:44.504Z,34.78
2022-10-04T08:34:54.519Z,34.61
2022-10-04T08:35:47.828Z,34.50
2022-10-04T08:36:37.220Z,34.48
2022-10-04T08:37:41.920Z,34.50
2022-10-04T08:38:45.689Z,34.58
2022-10-04T08:39:45.668Z,34.50
2022-10-04T08:40:26.847Z,34.54
2022-10-04T08:41:31.379Z,34.69
2022-10-04T08:42:39.610Z,34.63
2022-10-04T08:43:33.710Z,34.75
2022-10-04T08:44:43.900Z,34.91
2022-10-04T08:45:53.247Z,34.80
2022-10-04T08:47:01.217Z,34.90
2022-10-04T08:48:05.942Z,34.72
2022-10-04T08:49:17.805Z,34.43
2022-10-04T08:50:14.183Z,34.63
2022-10-04T08:51:09.438Z,34.31
2022-10-04T08:51:55.957Z,34.79
2022-10-04T08:53:27.416Z,34.66
2022-10-04T08:54:36.467Z,34.81
2022-10-04T08:55:45.920Z,34.63
2022-10-04T08:56:27.255Z,34.45
2022-10-04T08:57:42.410Z,34.62
2022-10-04T08:58:16.819Z,34.50
2022-10-04T08:59:09.085Z,34.51
2022-10-04T09:00:40.914Z,34.36
2022-10-04T09:01:32.842Z,34.52
2022-10-04T09:02:19.280Z,34.51
2022-10-04T09:03:30.919Z,34.56
2022-10-04T09:04:16.612Z,34.83
2022-10-04T09:06:26.804Z,34.55
2022-10-04T09:07:37.802Z,34.61
2022-10-04T09:10:02.915Z,34.47
2022-10-04T09:10:51.905Z,34.53
2022-10-04T09:11:40.067Z,34.47
2022-10-04T09:12:39.665Z,34.46
2022-10-04T09:13:30.689Z,34.46
2022-10-04T09:14:48.330Z,34.44
2022-10-04T09:15:54.721Z,34.68
2022-10-04T09:16:58.663Z,34.67
2022-10-04T09:19:20.515Z,34.53
2022-10-04T09:21:27.768Z,34.40
2022-10-04T09:22:23.755Z,34.41
2022-10-04T09:24:32.614Z,34.43
2022-10-04T09:25:19.221Z,34.34
2022-10-04T09:28:53.751Z,34.62
2022-10-04T09:29:46.611Z,34.59
2022-10-04T09:30:44.757Z,34.34
2022-10-04T09:31:30.991Z,34.47
2022-10-04T09:32:23.264Z,34.40
2022-10-04T09:39:30.481Z,34.44
2022-10-04T09:40:10.795Z,34.89
2022-10-04T09:41:05.550Z,34.66
2022-10-04T09:42:12.256Z,34.77
2022-10-04T09:43:20.717Z,34.90
2022-10-04T09:44:16.596Z,35.11
2022-10-04T09:44:59.403Z,35.01
2022-10-04T09:45:59.504Z,34.95
2022-10-04T09:47:09.721Z,34.82
2022-10-04T09:47:58.489Z,34.66
2022-10-04T09:49:06.080Z,34.66
2022-10-04T09:49:47.415Z,34.63
2022-10-04T09:50:45.106Z,34.59
2022-10-04T09:51:36.149Z,34.59
2022-10-04T09:52:30.354Z,34.51
2022-10-04T09:53:34.223Z,34.71
2022-10-04T09:54:32.325Z,34.65
2022-10-04T09:55:26.970Z,34.52
2022-10-04T09:56:30.200Z,34.62
2022-10-04T09:57:34.505Z,34.48
2022-10-04T09:58:37.297Z,34.70
2022-10-04T09:59:26.433Z,34.59
2022-10-04T10:00:14.303Z,34.81
2022-10-04T10:01:08.546Z,34.91
2022-10-04T10:02:24.307Z,34.72
2022-10-04T10:03:29.034Z,34.64
2022-10-04T10:04:32.583Z,34.77
2022-10-04T10:05:39.372Z,34.53
2022-10-04T10:06:45.582Z,34.57
2022-10-04T10:07:26.686Z,34.61
2022-10-04T10:08:38.235Z,34.56
2022-10-04T10:09:42.407Z,34.56
2022-10-04T10:10:26.632Z,34.42
2022-10-04T10:11:25.935Z,34.31
2022-10-04T10:12:18.391Z,34.59
2022-10-04T10:13:28.835Z,34.57
2022-10-04T10:14:12.786Z,34.46
2022-10-04T10:15:23.640Z,34.38
2022-10-04T10:16:05.442Z,34.51
2022-10-04T10:17:07.948Z,34.26
2022-10-04T10:18:01.776Z,34.25
2022-10-04T10:18:59.126Z,34.21
2022-10-04T10:19:44.095Z,34.45
2022-10-04T10:20:33.549Z,34.48
2022-10-04T10:21:15.334Z,34.31
2022-10-04T10:22:01.852Z,34.46
2022-10-04T10:22:44.499Z,34.32
2022-10-04T10:23:54.887Z,34.25
2022-10-04T10:24:45.982Z,34.43
2022-10-04T10:25:48.508Z,34.28
2022-10-04T10:26:56.501Z,34.38
2022-10-04T10:27:58.862Z,34.18
2022-10-04T10:28:49.397Z,34.36
2022-10-04T10:29:41.397Z,34.24
2022-10-04T10:30:54.910Z,34.16
2022-10-04T10:32:04.337Z,33.93
2022-10-04T10:33:04.145Z,34.15
2022-10-04T10:34:12.125Z,34.36
2022-10-04T10:35:07.196Z,34.15
2022-10-04T10:36:01.740Z,34.19
2022-10-04T10:36:47.581Z,34.00
2022-10-04T10:37:36.329Z,34.24
2022-10-04T10:38:41.121Z,34.17
2022-10-04T10:39:45.548Z,34.00
2022-10-04T10:40:52.079Z,34.18
2022-10-04T10:41:58.098Z,34.13
2022-10-04T10:43:06.540Z,34.43
2022-10-04T10:44:08.301Z,34.12
2022-10-04T10:44:49.379Z,33.82
2022-10-04T10:45:34.331Z,34.29
2022-10-04T10:46:46.217Z,34.23
2022-10-04T10:47:48.246Z,34.31
2022-10-04T10:48:56.131Z,34.13
2022-10-04T10:49:50.455Z,33.90
2022-10-04T10:50:47.431Z,33.93
2022-10-04T10:51:50.514Z,34.18
2022-10-04T10:52:57.227Z,34.00
2022-10-04T10:54:00.603Z,33.96
2022-10-04T10:55:05.539Z,34.16
2022-10-04T10:56:08.528Z,33.83
2022-10-04T10:57:01.186Z,33.86
2022-10-04T10:58:05.378Z,34.41
2022-10-04T10:59:04.802Z,34.10
2022-10-04T10:59:52.549Z,34.12
2022-10-04T11:00:52.077Z,33.87
2022-10-04T11:02:00.600Z,34.07
2022-10-04T11:02:50.341Z,33.89
2022-10-04T11:03:46.020Z,34.04
2022-10-04T11:04:45.701Z,33.98
2022-10-04T11:05:52.960Z,34.20
2022-10-04T11:06:51.579Z,34.22
2022-10-04T11:07:41.683Z,34.22
2022-10-04T11:08:32.083Z,34.17
2022-10-04T11:09:28.367Z,34.13
2022-10-04T11:10:19.897Z,34.04